Aigaion — SYMC — position and weather

sailwx.info

Track history (hours):
 
Tides and Currents Weather Stations Pressure Air Temp Water Temp Dewpoint Dewpoint Depression Visibility Wind Speed Wind Dir Waves Ship Positions

Aigaion

Last reported at 2015-Jan-21 13:33 UTC. Time now 2015-Feb-01 22:50 UTC.
Position N 22°12' E 119°37'.
Warning: this ship's position is 11 days out of date.

Length 289 m; draft 10 m.

Type: Cargo ship. MMSI: 240174000.

Date/timePositionNaut miles runAvg speedWind from/ knotsBaromVisibWave heightAir tempDewpointWater temp
2015-Jan-21 13:33N 22°12' E 119°37'48 9.6
2015-Jan-21 08:32N 22°59' E 119°46'  
2015-Jan-16 06:33N 35°58' E 120°36'9 8.8
2015-Jan-16 05:33N 35°60' E 120°26'10 9.9
2015-Jan-16 04:32N 36°01' E 120°13'0 0.0
2015-Jan-16 00:33N 36°01' E 120°13'0 0.0
2015-Jan-15 23:33N 36°01' E 120°13'0 0.0
2015-Jan-15 22:33N 36°01' E 120°13'0 0.0
2015-Jan-15 21:30N 36°01' E 120°13'0 0.0
2015-Jan-15 20:30N 36°01' E 120°13'0 0.0
2015-Jan-15 19:30N 36°01' E 120°13'0 0.0
2015-Jan-15 18:30N 36°01' E 120°13'0 0.0
2015-Jan-15 17:30N 36°01' E 120°13'0 0.0
2015-Jan-15 16:30N 36°01' E 120°13'0 0.0
2015-Jan-15 15:30N 36°01' E 120°13'0 0.0
2015-Jan-15 14:30N 36°01' E 120°13'0 0.0
2015-Jan-15 08:33N 36°01' E 120°13'0 0.0
2015-Jan-15 07:33N 36°01' E 120°13'0 0.0
2015-Jan-15 06:15N 36°01' E 120°13'0 0.0
2015-Jan-15 05:33N 36°01' E 120°13'0 0.0
2015-Jan-15 01:03N 36°01' E 120°13'0 0.0
2015-Jan-15 00:18N 36°01' E 120°13'0 0.0
2015-Jan-14 23:33N 36°01' E 120°13'0 0.0
2015-Jan-14 22:33N 36°01' E 120°13'0 0.0
2015-Jan-14 21:33N 36°01' E 120°13'0 0.0
2015-Jan-14 20:27N 36°01' E 120°13'0 0.0
2015-Jan-14 19:33N 36°01' E 120°13'0 0.0
2015-Jan-14 18:33N 36°01' E 120°13'0 0.0
2015-Jan-14 17:33N 36°01' E 120°13'0 0.0
2015-Jan-14 16:27N 36°01' E 120°13'0 0.0
2015-Jan-14 15:33N 36°01' E 120°13'0 0.0
2015-Jan-14 14:33N 36°01' E 120°13'1 0.7
2015-Jan-14 13:31N 36°02' E 120°14'0 0.0
2015-Jan-14 09:13N 36°02' E 120°14'0 0.0
2015-Jan-14 08:25N 36°02' E 120°14'0 0.0
2015-Jan-14 07:31N 36°02' E 120°14'0 0.0
2015-Jan-14 06:31N 36°02' E 120°14'0 0.0
2015-Jan-14 01:19N 36°02' E 120°14'0 0.0
2015-Jan-14 00:31N 36°02' E 120°14'0 0.0
2015-Jan-13 23:31N 36°02' E 120°14'0 0.0
2015-Jan-13 22:31N 36°02' E 120°14'0 0.0
2015-Jan-13 21:31N 36°02' E 120°14'0 0.0
2015-Jan-13 20:31N 36°02' E 120°14'0 0.0
2015-Jan-13 19:25N 36°02' E 120°14'0 0.0
2015-Jan-13 18:31N 36°02' E 120°14'0 0.0
2015-Jan-13 17:31N 36°02' E 120°14'0 0.0
2015-Jan-13 16:31N 36°02' E 120°14'0 0.0
2015-Jan-13 14:33N 36°02' E 120°14'12 0.3
2015-Jan-12 00:29N 35°50' E 120°16'0 0.0
2015-Jan-11 22:11N 35°50' E 120°16'0 0.3
2015-Jan-11 21:11N 35°50' E 120°16'0 0.0
2015-Jan-11 17:23N 35°50' E 120°16'0 0.1
2015-Jan-11 16:11N 35°50' E 120°16'  
Track history (hours):
 
Tides and Currents Weather Stations Pressure Air Temp Water Temp Dewpoint Dewpoint Depression Visibility Wind Speed Wind Dir Waves Ship Positions

Aigaion

Last reported at 2015-Jan-21 13:33 UTC. Time now 2015-Feb-01 22:50 UTC.
Position N 22°12' E 119°37'.
Warning: this ship's position is 11 days out of date.

Length 289 m; draft 10 m.

Type: Cargo ship. MMSI: 240174000.

Date/timePositionNaut miles runAvg speedWind from/ knotsBaromVisibWave heightAir tempDewpointWater temp
2015-Jan-21 13:33N 22°12' E 119°37'48 9.6
2015-Jan-21 08:32N 22°59' E 119°46'  
2015-Jan-16 06:33N 35°58' E 120°36'9 8.8
2015-Jan-16 05:33N 35°60' E 120°26'10 9.9
2015-Jan-16 04:32N 36°01' E 120°13'0 0.0
2015-Jan-16 00:33N 36°01' E 120°13'0 0.0
2015-Jan-15 23:33N 36°01' E 120°13'0 0.0
2015-Jan-15 22:33N 36°01' E 120°13'0 0.0
2015-Jan-15 21:30N 36°01' E 120°13'0 0.0
2015-Jan-15 20:30N 36°01' E 120°13'0 0.0
2015-Jan-15 19:30N 36°01' E 120°13'0 0.0
2015-Jan-15 18:30N 36°01' E 120°13'0 0.0
2015-Jan-15 17:30N 36°01' E 120°13'0 0.0
2015-Jan-15 16:30N 36°01' E 120°13'0 0.0
2015-Jan-15 15:30N 36°01' E 120°13'0 0.0
2015-Jan-15 14:30N 36°01' E 120°13'0 0.0
2015-Jan-15 08:33N 36°01' E 120°13'0 0.0
2015-Jan-15 07:33N 36°01' E 120°13'0 0.0
2015-Jan-15 06:15N 36°01' E 120°13'0 0.0
2015-Jan-15 05:33N 36°01' E 120°13'0 0.0
2015-Jan-15 01:03N 36°01' E 120°13'0 0.0
2015-Jan-15 00:18N 36°01' E 120°13'0 0.0
2015-Jan-14 23:33N 36°01' E 120°13'0 0.0
2015-Jan-14 22:33N 36°01' E 120°13'0 0.0
2015-Jan-14 21:33N 36°01' E 120°13'0 0.0
2015-Jan-14 20:27N 36°01' E 120°13'0 0.0
2015-Jan-14 19:33N 36°01' E 120°13'0 0.0
2015-Jan-14 18:33N 36°01' E 120°13'0 0.0
2015-Jan-14 17:33N 36°01' E 120°13'0 0.0
2015-Jan-14 16:27N 36°01' E 120°13'0 0.0
2015-Jan-14 15:33N 36°01' E 120°13'0 0.0
2015-Jan-14 14:33N 36°01' E 120°13'1 0.7
2015-Jan-14 13:31N 36°02' E 120°14'0 0.0
2015-Jan-14 09:13N 36°02' E 120°14'0 0.0
2015-Jan-14 08:25N 36°02' E 120°14'0 0.0
2015-Jan-14 07:31N 36°02' E 120°14'0 0.0
2015-Jan-14 06:31N 36°02' E 120°14'0 0.0
2015-Jan-14 01:19N 36°02' E 120°14'0 0.0
2015-Jan-14 00:31N 36°02' E 120°14'0 0.0
2015-Jan-13 23:31N 36°02' E 120°14'0 0.0
2015-Jan-13 22:31N 36°02' E 120°14'0 0.0
2015-Jan-13 21:31N 36°02' E 120°14'0 0.0
2015-Jan-13 20:31N 36°02' E 120°14'0 0.0
2015-Jan-13 19:25N 36°02' E 120°14'0 0.0
2015-Jan-13 18:31N 36°02' E 120°14'0 0.0
2015-Jan-13 17:31N 36°02' E 120°14'0 0.0
2015-Jan-13 16:31N 36°02' E 120°14'0 0.0
2015-Jan-13 14:33N 36°02' E 120°14'12 0.3
2015-Jan-12 00:29N 35°50' E 120°16'0 0.0
2015-Jan-11 22:11N 35°50' E 120°16'0 0.3
2015-Jan-11 21:11N 35°50' E 120°16'0 0.0
2015-Jan-11 17:23N 35°50' E 120°16'0 0.1
2015-Jan-11 16:11N 35°50' E 120°16'  

Dump ship's entire track history